sensor_id;sensor_type;location;lat;lon;timestamp;P1;durP1;ratioP1;P2;durP2;ratioP2
37485;SDS011;23341;50.296;18.960;2024-03-25T00:01:12;13.25;;;8.57;;
37485;SDS011;23341;50.296;18.960;2024-03-25T00:03:41;13.32;;;8.65;;
37485;SDS011;23341;50.296;18.960;2024-03-25T00:06:08;13.73;;;9.07;;
37485;SDS011;23341;50.296;18.960;2024-03-25T00:08:35;12.73;;;8.25;;
37485;SDS011;23341;50.296;18.960;2024-03-25T00:11:02;16.13;;;9.02;;
37485;SDS011;23341;50.296;18.960;2024-03-25T00:13:29;11.35;;;7.70;;
37485;SDS011;23341;50.296;18.960;2024-03-25T00:15:56;14.77;;;10.05;;
37485;SDS011;23341;50.296;18.960;2024-03-25T00:18:23;12.25;;;8.05;;
37485;SDS011;23341;50.296;18.960;2024-03-25T00:20:52;13.88;;;8.27;;
37485;SDS011;23341;50.296;18.960;2024-03-25T00:23:18;9.95;;;8.25;;
37485;SDS011;23341;50.296;18.960;2024-03-25T00:25:46;13.07;;;8.40;;
37485;SDS011;23341;50.296;18.960;2024-03-25T00:28:12;16.98;;;9.32;;
37485;SDS011;23341;50.296;18.960;2024-03-25T00:30:39;10.57;;;8.68;;
37485;SDS011;23341;50.296;18.960;2024-03-25T00:33:06;13.40;;;8.82;;
37485;SDS011;23341;50.296;18.960;2024-03-25T00:35:33;10.93;;;8.10;;
37485;SDS011;23341;50.296;18.960;2024-03-25T00:38:01;12.50;;;7.93;;
37485;SDS011;23341;50.296;18.960;2024-03-25T00:40:29;13.40;;;7.55;;
37485;SDS011;23341;50.296;18.960;2024-03-25T00:42:56;11.07;;;7.13;;
37485;SDS011;23341;50.296;18.960;2024-03-25T00:45:23;12.25;;;7.53;;
37485;SDS011;23341;50.296;18.960;2024-03-25T00:47:51;10.95;;;7.60;;
37485;SDS011;23341;50.296;18.960;2024-03-25T00:50:18;10.32;;;7.80;;
37485;SDS011;23341;50.296;18.960;2024-03-25T00:52:45;9.73;;;7.78;;
37485;SDS011;23341;50.296;18.960;2024-03-25T00:55:14;10.18;;;7.15;;
37485;SDS011;23341;50.296;18.960;2024-03-25T00:57:41;9.98;;;8.13;;
37485;SDS011;23341;50.296;18.960;2024-03-25T01:00:09;10.38;;;7.20;;
37485;SDS011;23341;50.296;18.960;2024-03-25T01:02:36;8.18;;;6.80;;
37485;SDS011;23341;50.296;18.960;2024-03-25T01:05:04;9.85;;;6.88;;
37485;SDS011;23341;50.296;18.960;2024-03-25T01:07:31;8.60;;;6.45;;
37485;SDS011;23341;50.296;18.960;2024-03-25T01:09:59;10.88;;;6.35;;
37485;SDS011;23341;50.296;18.960;2024-03-25T01:12:26;6.72;;;5.50;;
37485;SDS011;23341;50.296;18.960;2024-03-25T01:14:54;10.73;;;6.63;;
37485;SDS011;23341;50.296;18.960;2024-03-25T01:17:20;8.98;;;6.85;;
37485;SDS011;23341;50.296;18.960;2024-03-25T01:19:48;10.85;;;7.65;;
37485;SDS011;23341;50.296;18.960;2024-03-25T01:22:15;10.70;;;6.63;;
37485;SDS011;23341;50.296;18.960;2024-03-25T01:24:42;9.05;;;6.15;;
37485;SDS011;23341;50.296;18.960;2024-03-25T01:27:09;8.85;;;5.78;;
37485;SDS011;23341;50.296;18.960;2024-03-25T01:29:38;12.95;;;5.70;;
37485;SDS011;23341;50.296;18.960;2024-03-25T01:32:04;7.15;;;5.88;;
37485;SDS011;23341;50.296;18.960;2024-03-25T01:34:32;9.68;;;5.60;;
37485;SDS011;23341;50.296;18.960;2024-03-25T01:36:58;7.80;;;5.80;;
37485;SDS011;23341;50.296;18.960;2024-03-25T01:39:26;7.97;;;5.80;;
37485;SDS011;23341;50.296;18.960;2024-03-25T01:41:52;8.77;;;6.30;;
37485;SDS011;23341;50.296;18.960;2024-03-25T01:44:19;9.60;;;6.32;;
37485;SDS011;23341;50.296;18.960;2024-03-25T01:46:47;9.02;;;7.03;;
37485;SDS011;23341;50.296;18.960;2024-03-25T01:49:15;7.63;;;6.20;;
37485;SDS011;23341;50.296;18.960;2024-03-25T01:51:41;7.40;;;6.60;;
37485;SDS011;23341;50.296;18.960;2024-03-25T01:54:09;8.27;;;6.45;;
37485;SDS011;23341;50.296;18.960;2024-03-25T01:56:35;10.43;;;6.88;;
37485;SDS011;23341;50.296;18.960;2024-03-25T01:59:06;7.95;;;6.20;;
37485;SDS011;23341;50.296;18.960;2024-03-25T02:01:33;6.40;;;5.80;;
37485;SDS011;23341;50.296;18.960;2024-03-25T14:04:51;9.50;;;5.78;;
37485;SDS011;23341;50.296;18.960;2024-03-25T14:07:17;10.30;;;7.05;;
37485;SDS011;23341;50.296;18.960;2024-03-25T14:09:44;10.07;;;7.93;;
37485;SDS011;23341;50.296;18.960;2024-03-25T14:12:10;10.30;;;7.47;;
37485;SDS011;23341;50.296;18.960;2024-03-25T14:14:37;9.00;;;7.07;;
37485;SDS011;23341;50.296;18.960;2024-03-25T14:17:03;10.90;;;8.07;;
37485;SDS011;23341;50.296;18.960;2024-03-25T14:19:29;7.45;;;5.70;;
37485;SDS011;23341;50.296;18.960;2024-03-25T14:21:57;15.02;;;10.88;;
37485;SDS011;23341;50.296;18.960;2024-03-25T14:24:23;15.48;;;8.85;;
37485;SDS011;23341;50.296;18.960;2024-03-25T14:26:49;24.35;;;14.82;;
37485;SDS011;23341;50.296;18.960;2024-03-25T14:29:16;26.25;;;14.52;;
37485;SDS011;23341;50.296;18.960;2024-03-25T14:31:42;28.75;;;17.73;;
37485;SDS011;23341;50.296;18.960;2024-03-25T14:34:08;21.92;;;12.98;;
37485;SDS011;23341;50.296;18.960;2024-03-25T14:36:35;15.52;;;10.23;;
37485;SDS011;23341;50.296;18.960;2024-03-25T14:39:02;25.55;;;17.65;;
37485;SDS011;23341;50.296;18.960;2024-03-25T14:41:29;35.88;;;32.15;;
37485;SDS011;23341;50.296;18.960;2024-03-25T14:44:04;43.05;;;38.88;;
37485;SDS011;23341;50.296;18.960;2024-03-25T14:46:31;10.25;;;8.05;;
37485;SDS011;23341;50.296;18.960;2024-03-25T14:48:57;8.13;;;6.88;;
37485;SDS011;23341;50.296;18.960;2024-03-25T14:51:23;13.68;;;9.35;;
37485;SDS011;23341;50.296;18.960;2024-03-25T14:53:50;15.18;;;12.55;;
37485;SDS011;23341;50.296;18.960;2024-03-25T14:56:17;6.95;;;6.25;;
37485;SDS011;23341;50.296;18.960;2024-03-25T14:58:44;12.57;;;9.40;;
37485;SDS011;23341;50.296;18.960;2024-03-25T15:01:10;16.30;;;8.82;;
37485;SDS011;23341;50.296;18.960;2024-03-25T15:03:37;13.35;;;6.72;;
37485;SDS011;23341;50.296;18.960;2024-03-25T15:06:03;6.93;;;4.97;;
37485;SDS011;23341;50.296;18.960;2024-03-25T15:08:31;7.88;;;6.35;;
37485;SDS011;23341;50.296;18.960;2024-03-25T15:10:57;8.50;;;5.78;;
37485;SDS011;23341;50.296;18.960;2024-03-25T15:13:25;19.33;;;10.15;;
37485;SDS011;23341;50.296;18.960;2024-03-25T15:15:51;13.88;;;8.57;;
37485;SDS011;23341;50.296;18.960;2024-03-25T15:18:17;19.48;;;10.70;;
37485;SDS011;23341;50.296;18.960;2024-03-25T15:20:43;23.95;;;10.73;;
37485;SDS011;23341;50.296;18.960;2024-03-25T15:23:10;16.00;;;9.15;;
37485;SDS011;23341;50.296;18.960;2024-03-25T15:25:36;16.13;;;8.52;;
37485;SDS011;23341;50.296;18.960;2024-03-25T15:28:02;15.57;;;9.32;;
37485;SDS011;23341;50.296;18.960;2024-03-25T15:30:30;12.15;;;8.50;;
37485;SDS011;23341;50.296;18.960;2024-03-25T15:32:57;16.45;;;9.07;;
37485;SDS011;23341;50.296;18.960;2024-03-25T15:35:23;14.32;;;8.27;;
37485;SDS011;23341;50.296;18.960;2024-03-25T15:37:49;15.23;;;9.65;;
37485;SDS011;23341;50.296;18.960;2024-03-25T15:40:15;25.52;;;12.68;;
37485;SDS011;23341;50.296;18.960;2024-03-25T15:42:42;16.95;;;10.85;;
37485;SDS011;23341;50.296;18.960;2024-03-25T15:45:08;19.48;;;11.52;;
37485;SDS011;23341;50.296;18.960;2024-03-25T15:47:36;10.93;;;7.82;;
37485;SDS011;23341;50.296;18.960;2024-03-25T15:50:02;15.38;;;8.15;;
37485;SDS011;23341;50.296;18.960;2024-03-25T15:52:29;11.38;;;7.70;;
37485;SDS011;23341;50.296;18.960;2024-03-25T15:54:55;8.75;;;7.65;;
37485;SDS011;23341;50.296;18.960;2024-03-25T15:57:21;19.20;;;9.77;;
37485;SDS011;23341;50.296;18.960;2024-03-25T15:59:48;21.80;;;9.27;;
37485;SDS011;23341;50.296;18.960;2024-03-25T16:02:14;12.75;;;8.82;;
37485;SDS011;23341;50.296;18.960;2024-03-25T16:04:41;12.82;;;7.03;;
37485;SDS011;23341;50.296;18.960;2024-03-25T16:07:08;20.48;;;11.07;;
37485;SDS011;23341;50.296;18.960;2024-03-25T16:09:34;25.35;;;13.77;;
37485;SDS011;23341;50.296;18.960;2024-03-25T16:12:00;46.78;;;21.88;;
37485;SDS011;23341;50.296;18.960;2024-03-25T16:14:28;34.20;;;19.63;;
37485;SDS011;23341;50.296;18.960;2024-03-25T16:16:57;27.20;;;14.68;;
37485;SDS011;23341;50.296;18.960;2024-03-25T16:19:24;18.75;;;11.27;;
37485;SDS011;23341;50.296;18.960;2024-03-25T16:21:52;16.85;;;9.55;;
37485;SDS011;23341;50.296;18.960;2024-03-25T16:24:18;13.98;;;10.50;;
37485;SDS011;23341;50.296;18.960;2024-03-25T16:26:44;21.83;;;12.77;;
37485;SDS011;23341;50.296;18.960;2024-03-25T16:29:11;85.60;;;37.42;;
37485;SDS011;23341;50.296;18.960;2024-03-25T16:31:37;32.13;;;17.58;;
37485;SDS011;23341;50.296;18.960;2024-03-25T16:34:03;42.83;;;29.88;;
37485;SDS011;23341;50.296;18.960;2024-03-25T16:36:30;67.78;;;37.65;;
37485;SDS011;23341;50.296;18.960;2024-03-25T16:38:57;67.35;;;34.17;;
37485;SDS011;23341;50.296;18.960;2024-03-25T16:41:24;57.55;;;26.30;;
37485;SDS011;23341;50.296;18.960;2024-03-25T16:43:50;45.95;;;22.65;;
37485;SDS011;23341;50.296;18.960;2024-03-25T16:46:16;48.65;;;22.77;;
37485;SDS011;23341;50.296;18.960;2024-03-25T16:48:43;43.90;;;20.98;;
37485;SDS011;23341;50.296;18.960;2024-03-25T16:51:09;48.03;;;22.98;;
37485;SDS011;23341;50.296;18.960;2024-03-25T16:53:35;34.03;;;18.73;;
37485;SDS011;23341;50.296;18.960;2024-03-25T16:56:03;33.22;;;18.92;;
37485;SDS011;23341;50.296;18.960;2024-03-25T16:58:30;46.33;;;24.77;;
37485;SDS011;23341;50.296;18.960;2024-03-25T17:00:56;47.55;;;25.25;;
37485;SDS011;23341;50.296;18.960;2024-03-25T17:03:22;48.10;;;23.55;;
37485;SDS011;23341;50.296;18.960;2024-03-25T17:05:50;29.70;;;15.10;;
37485;SDS011;23341;50.296;18.960;2024-03-25T17:08:16;38.22;;;18.38;;
37485;SDS011;23341;50.296;18.960;2024-03-25T17:10:43;43.53;;;22.42;;
37485;SDS011;23341;50.296;18.960;2024-03-25T17:13:11;73.88;;;35.63;;
37485;SDS011;23341;50.296;18.960;2024-03-25T17:15:37;79.45;;;37.50;;
37485;SDS011;23341;50.296;18.960;2024-03-25T17:18:07;141.45;;;69.32;;
37485;SDS011;23341;50.296;18.960;2024-03-25T17:20:34;77.03;;;38.33;;
37485;SDS011;23341;50.296;18.960;2024-03-25T17:23:00;39.53;;;24.27;;
37485;SDS011;23341;50.296;18.960;2024-03-25T17:25:27;41.65;;;25.90;;
37485;SDS011;23341;50.296;18.960;2024-03-25T17:27:53;36.17;;;20.02;;
37485;SDS011;23341;50.296;18.960;2024-03-25T17:30:21;31.13;;;19.55;;
37485;SDS011;23341;50.296;18.960;2024-03-25T17:32:48;33.78;;;20.15;;
37485;SDS011;23341;50.296;18.960;2024-03-25T17:35:14;31.73;;;22.83;;
37485;SDS011;23341;50.296;18.960;2024-03-25T17:37:40;48.08;;;28.08;;
37485;SDS011;23341;50.296;18.960;2024-03-25T17:40:07;99.45;;;52.60;;
37485;SDS011;23341;50.296;18.960;2024-03-25T17:42:34;61.47;;;37.42;;
37485;SDS011;23341;50.296;18.960;2024-03-25T17:45:01;55.17;;;30.35;;
37485;SDS011;23341;50.296;18.960;2024-03-25T17:47:28;52.85;;;28.30;;
37485;SDS011;23341;50.296;18.960;2024-03-25T17:49:55;61.03;;;33.42;;
37485;SDS011;23341;50.296;18.960;2024-03-25T17:52:21;54.00;;;30.63;;
37485;SDS011;23341;50.296;18.960;2024-03-25T17:54:48;64.07;;;33.17;;
37485;SDS011;23341;50.296;18.960;2024-03-25T17:57:14;54.78;;;31.27;;
37485;SDS011;23341;50.296;18.960;2024-03-25T17:59:42;51.80;;;32.00;;
37485;SDS011;23341;50.296;18.960;2024-03-25T18:02:09;43.05;;;28.05;;
37485;SDS011;23341;50.296;18.960;2024-03-25T18:04:37;47.83;;;27.88;;
37485;SDS011;23341;50.296;18.960;2024-03-25T18:07:04;58.10;;;33.05;;
37485;SDS011;23341;50.296;18.960;2024-03-25T18:09:31;67.60;;;40.47;;
37485;SDS011;23341;50.296;18.960;2024-03-25T18:11:57;58.60;;;36.65;;
37485;SDS011;23341;50.296;18.960;2024-03-25T18:14:23;50.65;;;31.70;;
37485;SDS011;23341;50.296;18.960;2024-03-25T18:16:49;54.28;;;32.47;;
37485;SDS011;23341;50.296;18.960;2024-03-25T18:19:16;51.97;;;34.08;;
37485;SDS011;23341;50.296;18.960;2024-03-25T18:21:44;57.83;;;37.28;;
37485;SDS011;23341;50.296;18.960;2024-03-25T18:24:10;57.55;;;31.88;;
37485;SDS011;23341;50.296;18.960;2024-03-25T18:26:36;52.92;;;32.30;;
37485;SDS011;23341;50.296;18.960;2024-03-25T18:29:02;65.85;;;37.58;;
37485;SDS011;23341;50.296;18.960;2024-03-25T18:31:29;45.88;;;27.13;;
37485;SDS011;23341;50.296;18.960;2024-03-25T18:33:55;48.08;;;28.80;;
37485;SDS011;23341;50.296;18.960;2024-03-25T18:36:21;68.57;;;36.40;;
37485;SDS011;23341;50.296;18.960;2024-03-25T18:38:49;75.55;;;40.13;;
37485;SDS011;23341;50.296;18.960;2024-03-25T18:41:15;102.35;;;55.30;;
37485;SDS011;23341;50.296;18.960;2024-03-25T18:43:41;165.48;;;69.85;;
37485;SDS011;23341;50.296;18.960;2024-03-25T18:46:08;130.85;;;59.85;;
37485;SDS011;23341;50.296;18.960;2024-03-25T18:48:34;953.05;;;367.23;;
37485;SDS011;23341;50.296;18.960;2024-03-25T18:51:00;905.22;;;357.83;;
37485;SDS011;23341;50.296;18.960;2024-03-25T18:53:27;450.42;;;169.32;;
37485;SDS011;23341;50.296;18.960;2024-03-25T18:55:54;109.95;;;52.97;;
37485;SDS011;23341;50.296;18.960;2024-03-25T18:58:21;98.55;;;55.67;;
37485;SDS011;23341;50.296;18.960;2024-03-25T19:00:47;75.55;;;44.55;;
37485;SDS011;23341;50.296;18.960;2024-03-25T19:03:13;57.53;;;34.67;;
37485;SDS011;23341;50.296;18.960;2024-03-25T19:05:40;57.10;;;33.70;;
37485;SDS011;23341;50.296;18.960;2024-03-25T19:08:06;63.92;;;36.55;;
37485;SDS011;23341;50.296;18.960;2024-03-25T19:10:33;82.00;;;45.40;;
37485;SDS011;23341;50.296;18.960;2024-03-25T19:13:01;61.33;;;35.10;;
37485;SDS011;23341;50.296;18.960;2024-03-25T19:15:27;68.72;;;37.33;;
37485;SDS011;23341;50.296;18.960;2024-03-25T19:17:53;66.55;;;38.15;;
37485;SDS011;23341;50.296;18.960;2024-03-25T19:20:19;85.82;;;49.95;;
37485;SDS011;23341;50.296;18.960;2024-03-25T19:22:46;75.28;;;43.38;;
37485;SDS011;23341;50.296;18.960;2024-03-25T19:25:13;85.22;;;49.88;;
37485;SDS011;23341;50.296;18.960;2024-03-25T19:27:39;104.32;;;61.65;;
37485;SDS011;23341;50.296;18.960;2024-03-25T19:30:07;96.60;;;55.97;;
37485;SDS011;23341;50.296;18.960;2024-03-25T19:32:35;96.50;;;54.17;;
37485;SDS011;23341;50.296;18.960;2024-03-25T19:35:01;97.43;;;53.47;;
37485;SDS011;23341;50.296;18.960;2024-03-25T19:37:27;93.93;;;51.03;;
37485;SDS011;23341;50.296;18.960;2024-03-25T19:39:53;98.18;;;48.78;;
37485;SDS011;23341;50.296;18.960;2024-03-25T19:42:20;109.90;;;55.60;;
37485;SDS011;23341;50.296;18.960;2024-03-25T19:44:46;104.78;;;57.35;;
37485;SDS011;23341;50.296;18.960;2024-03-25T19:47:15;102.93;;;54.35;;
37485;SDS011;23341;50.296;18.960;2024-03-25T19:49:41;107.47;;;58.75;;
37485;SDS011;23341;50.296;18.960;2024-03-25T19:52:08;121.13;;;64.32;;
37485;SDS011;23341;50.296;18.960;2024-03-25T19:54:34;128.40;;;67.78;;
37485;SDS011;23341;50.296;18.960;2024-03-25T19:57:01;104.38;;;58.25;;
37485;SDS011;23341;50.296;18.960;2024-03-25T19:59:27;99.78;;;53.10;;
37485;SDS011;23341;50.296;18.960;2024-03-25T20:01:53;129.27;;;61.42;;
37485;SDS011;23341;50.296;18.960;2024-03-25T20:04:21;119.28;;;59.85;;
37485;SDS011;23341;50.296;18.960;2024-03-25T20:06:47;135.63;;;58.47;;
37485;SDS011;23341;50.296;18.960;2024-03-25T20:09:13;73.50;;;37.58;;
37485;SDS011;23341;50.296;18.960;2024-03-25T20:11:40;75.03;;;39.17;;
37485;SDS011;23341;50.296;18.960;2024-03-25T20:14:06;63.65;;;31.63;;
37485;SDS011;23341;50.296;18.960;2024-03-25T20:16:33;61.83;;;30.70;;
37485;SDS011;23341;50.296;18.960;2024-03-25T20:18:59;86.40;;;46.25;;
37485;SDS011;23341;50.296;18.960;2024-03-25T20:21:27;97.97;;;50.08;;
37485;SDS011;23341;50.296;18.960;2024-03-25T20:23:53;120.25;;;67.68;;
37485;SDS011;23341;50.296;18.960;2024-03-25T20:26:19;95.68;;;51.67;;
37485;SDS011;23341;50.296;18.960;2024-03-25T20:28:46;145.30;;;80.88;;
37485;SDS011;23341;50.296;18.960;2024-03-25T20:31:12;108.43;;;60.65;;
37485;SDS011;23341;50.296;18.960;2024-03-25T20:33:38;128.05;;;60.22;;
37485;SDS011;23341;50.296;18.960;2024-03-25T20:36:05;144.77;;;68.20;;
37485;SDS011;23341;50.296;18.960;2024-03-25T20:38:32;154.00;;;79.18;;
37485;SDS011;23341;50.296;18.960;2024-03-25T20:40:59;190.27;;;100.20;;
37485;SDS011;23341;50.296;18.960;2024-03-25T20:43:25;168.40;;;83.18;;
37485;SDS011;23341;50.296;18.960;2024-03-25T20:45:52;135.85;;;67.93;;
37485;SDS011;23341;50.296;18.960;2024-03-25T20:48:18;119.03;;;60.90;;
37485;SDS011;23341;50.296;18.960;2024-03-25T20:50:44;135.90;;;68.97;;
37485;SDS011;23341;50.296;18.960;2024-03-25T20:53:10;143.75;;;70.40;;
37485;SDS011;23341;50.296;18.960;2024-03-25T20:55:39;112.20;;;57.60;;
37485;SDS011;23341;50.296;18.960;2024-03-25T20:58:05;148.00;;;75.53;;
37485;SDS011;23341;50.296;18.960;2024-03-25T21:00:31;129.05;;;73.00;;
37485;SDS011;23341;50.296;18.960;2024-03-25T21:02:57;126.65;;;70.60;;
37485;SDS011;23341;50.296;18.960;2024-03-25T21:05:24;107.45;;;61.90;;
37485;SDS011;23341;50.296;18.960;2024-03-25T21:07:50;108.63;;;53.40;;
37485;SDS011;23341;50.296;18.960;2024-03-25T21:10:17;106.90;;;57.67;;
37485;SDS011;23341;50.296;18.960;2024-03-25T21:12:45;127.90;;;67.63;;
37485;SDS011;23341;50.296;18.960;2024-03-25T21:15:11;120.88;;;65.40;;
37485;SDS011;23341;50.296;18.960;2024-03-25T21:17:37;105.50;;;58.63;;
37485;SDS011;23341;50.296;18.960;2024-03-25T21:20:04;110.65;;;65.15;;
37485;SDS011;23341;50.296;18.960;2024-03-25T21:22:31;104.30;;;58.13;;
37485;SDS011;23341;50.296;18.960;2024-03-25T21:24:57;104.32;;;57.50;;
37485;SDS011;23341;50.296;18.960;2024-03-25T21:27:24;101.15;;;55.97;;
37485;SDS011;23341;50.296;18.960;2024-03-25T21:29:51;103.40;;;55.92;;
37485;SDS011;23341;50.296;18.960;2024-03-25T21:32:18;102.63;;;57.97;;
37485;SDS011;23341;50.296;18.960;2024-03-25T21:34:44;102.30;;;56.42;;
37485;SDS011;23341;50.296;18.960;2024-03-25T21:37:10;108.28;;;57.38;;
37485;SDS011;23341;50.296;18.960;2024-03-25T21:39:37;108.13;;;59.45;;
37485;SDS011;23341;50.296;18.960;2024-03-25T21:42:03;106.78;;;60.58;;
37485;SDS011;23341;50.296;18.960;2024-03-25T21:44:29;102.55;;;57.25;;
37485;SDS011;23341;50.296;18.960;2024-03-25T21:46:57;102.47;;;54.47;;
37485;SDS011;23341;50.296;18.960;2024-03-25T21:49:23;102.55;;;59.20;;
37485;SDS011;23341;50.296;18.960;2024-03-25T21:51:50;107.28;;;57.50;;
37485;SDS011;23341;50.296;18.960;2024-03-25T21:54:16;114.75;;;59.53;;
37485;SDS011;23341;50.296;18.960;2024-03-25T21:56:42;112.13;;;59.75;;
37485;SDS011;23341;50.296;18.960;2024-03-25T21:59:08;104.72;;;56.10;;
37485;SDS011;23341;50.296;18.960;2024-03-25T22:01:35;212.60;;;101.68;;
37485;SDS011;23341;50.296;18.960;2024-03-25T22:04:02;118.13;;;63.70;;
37485;SDS011;23341;50.296;18.960;2024-03-25T22:06:29;125.47;;;65.22;;
37485;SDS011;23341;50.296;18.960;2024-03-25T22:08:55;108.03;;;61.17;;
37485;SDS011;23341;50.296;18.960;2024-03-25T22:11:21;167.32;;;78.07;;
37485;SDS011;23341;50.296;18.960;2024-03-25T22:13:48;119.25;;;63.72;;
37485;SDS011;23341;50.296;18.960;2024-03-25T22:16:14;127.60;;;66.68;;
37485;SDS011;23341;50.296;18.960;2024-03-25T22:18:40;134.80;;;68.80;;
37485;SDS011;23341;50.296;18.960;2024-03-25T22:21:08;123.53;;;66.80;;
37485;SDS011;23341;50.296;18.960;2024-03-25T22:23:34;173.52;;;88.53;;
37485;SDS011;23341;50.296;18.960;2024-03-25T22:26:00;171.48;;;87.57;;
37485;SDS011;23341;50.296;18.960;2024-03-25T22:28:27;156.27;;;85.65;;
37485;SDS011;23341;50.296;18.960;2024-03-25T22:30:56;143.32;;;80.13;;
37485;SDS011;23341;50.296;18.960;2024-03-25T22:33:23;134.70;;;72.32;;
37485;SDS011;23341;50.296;18.960;2024-03-25T22:35:53;139.45;;;83.35;;
37485;SDS011;23341;50.296;18.960;2024-03-25T22:38:21;131.48;;;79.85;;
37485;SDS011;23341;50.296;18.960;2024-03-25T22:40:48;113.78;;;64.53;;
37485;SDS011;23341;50.296;18.960;2024-03-25T22:43:14;135.23;;;67.38;;
37485;SDS011;23341;50.296;18.960;2024-03-25T22:45:41;117.07;;;58.63;;
37485;SDS011;23341;50.296;18.960;2024-03-25T22:48:18;122.50;;;65.28;;
37485;SDS011;23341;50.296;18.960;2024-03-25T22:50:54;113.15;;;61.92;;
37485;SDS011;23341;50.296;18.960;2024-03-25T22:53:22;115.50;;;68.18;;
37485;SDS011;23341;50.296;18.960;2024-03-25T22:55:58;121.65;;;65.65;;
37485;SDS011;23341;50.296;18.960;2024-03-25T22:58:25;103.72;;;57.17;;
37485;SDS011;23341;50.296;18.960;2024-03-25T23:00:53;113.85;;;59.25;;
37485;SDS011;23341;50.296;18.960;2024-03-25T23:03:20;127.18;;;66.45;;
37485;SDS011;23341;50.296;18.960;2024-03-25T23:05:54;127.60;;;64.25;;
37485;SDS011;23341;50.296;18.960;2024-03-25T23:08:22;112.85;;;61.35;;
37485;SDS011;23341;50.296;18.960;2024-03-25T23:10:49;107.28;;;62.08;;
37485;SDS011;23341;50.296;18.960;2024-03-25T23:13:15;105.85;;;60.25;;
37485;SDS011;23341;50.296;18.960;2024-03-25T23:15:42;94.45;;;52.33;;
37485;SDS011;23341;50.296;18.960;2024-03-25T23:18:08;93.50;;;49.88;;
37485;SDS011;23341;50.296;18.960;2024-03-25T23:20:35;93.15;;;49.03;;
37485;SDS011;23341;50.296;18.960;2024-03-25T23:23:01;94.53;;;48.67;;
37485;SDS011;23341;50.296;18.960;2024-03-25T23:25:30;103.75;;;59.97;;
37485;SDS011;23341;50.296;18.960;2024-03-25T23:27:57;102.93;;;57.23;;
37485;SDS011;23341;50.296;18.960;2024-03-25T23:30:23;110.97;;;59.13;;
37485;SDS011;23341;50.296;18.960;2024-03-25T23:32:50;98.82;;;50.75;;
37485;SDS011;23341;50.296;18.960;2024-03-25T23:35:18;96.15;;;48.95;;
37485;SDS011;23341;50.296;18.960;2024-03-25T23:37:44;97.15;;;50.47;;
37485;SDS011;23341;50.296;18.960;2024-03-25T23:40:11;98.13;;;49.28;;
37485;SDS011;23341;50.296;18.960;2024-03-25T23:42:39;100.72;;;49.50;;
37485;SDS011;23341;50.296;18.960;2024-03-25T23:45:06;100.57;;;50.78;;
37485;SDS011;23341;50.296;18.960;2024-03-25T23:47:33;96.25;;;47.97;;
37485;SDS011;23341;50.296;18.960;2024-03-25T23:49:59;88.60;;;46.25;;
37485;SDS011;23341;50.296;18.960;2024-03-25T23:52:26;92.40;;;48.17;;
37485;SDS011;23341;50.296;18.960;2024-03-25T23:54:52;80.55;;;42.15;;
37485;SDS011;23341;50.296;18.960;2024-03-25T23:57:18;92.95;;;46.63;;
37485;SDS011;23341;50.296;18.960;2024-03-25T23:59:46;88.53;;;46.10;;
